createdAt,value
2017-09-15T00:00:57.145Z,22.33
2017-09-15T00:03:23.398Z,22.41
2017-09-15T00:05:49.733Z,22.30
2017-09-15T00:08:16.272Z,22.28
2017-09-15T00:10:42.705Z,22.22
2017-09-15T00:13:09.025Z,22.14
2017-09-15T00:15:35.250Z,22.17
2017-09-15T00:18:01.499Z,22.22
2017-09-15T00:20:27.818Z,22.29
2017-09-15T00:22:54.154Z,22.42
2017-09-15T00:25:20.494Z,22.57
2017-09-15T00:27:46.937Z,22.55
2017-09-15T00:30:13.266Z,22.49
2017-09-15T00:32:39.583Z,22.41
2017-09-15T00:35:05.931Z,22.35
2017-09-15T00:37:32.262Z,22.29
2017-09-15T00:39:58.675Z,22.22
2017-09-15T00:42:25.220Z,22.05
2017-09-15T00:44:52.277Z,21.91
2017-09-15T00:47:18.492Z,21.80
2017-09-15T00:49:44.822Z,21.61
2017-09-15T00:52:11.076Z,21.49
2017-09-15T00:54:37.305Z,21.43
2017-09-15T00:57:03.636Z,21.40
2017-09-15T00:59:29.977Z,21.32
2017-09-15T01:01:56.499Z,21.25
2017-09-15T01:04:22.738Z,21.15
2017-09-15T01:06:49.073Z,21.14
2017-09-15T01:09:15.393Z,21.30
2017-09-15T01:11:42.321Z,21.34
2017-09-15T01:14:08.671Z,21.36
2017-09-15T01:16:35.004Z,21.44
2017-09-15T01:19:01.336Z,21.41
2017-09-15T01:21:27.558Z,21.31
2017-09-15T01:23:53.801Z,21.25
2017-09-15T01:26:20.111Z,21.26
2017-09-15T01:28:46.446Z,21.27
2017-09-15T01:31:12.787Z,21.34
2017-09-15T01:33:39.541Z,21.37
2017-09-15T01:36:05.872Z,21.32
2017-09-15T01:38:32.100Z,21.30
2017-09-15T01:40:58.424Z,21.43
2017-09-15T01:43:24.843Z,21.42
2017-09-15T01:45:51.094Z,21.40
2017-09-15T01:48:17.419Z,21.41
2017-09-15T01:50:43.741Z,21.45
2017-09-15T01:53:09.979Z,21.49
2017-09-15T01:55:36.219Z,21.53
2017-09-15T01:58:02.945Z,21.57
2017-09-15T02:00:29.283Z,21.48
2017-09-15T02:02:55.614Z,21.38
2017-09-15T02:05:21.833Z,21.32
2017-09-15T02:07:48.166Z,21.27
2017-09-15T02:10:14.824Z,21.21
2017-09-15T02:12:41.657Z,21.18
2017-09-15T02:15:08.005Z,21.17
2017-09-15T02:17:34.332Z,21.10
2017-09-15T02:20:00.562Z,20.97
2017-09-15T02:22:27.008Z,20.74
2017-09-15T02:24:53.332Z,20.58
2017-09-15T02:27:19.641Z,20.41
2017-09-15T02:29:45.986Z,20.25
2017-09-15T02:32:12.315Z,20.10
2017-09-15T02:34:38.667Z,19.98
2017-09-15T02:37:05.406Z,19.88
2017-09-15T02:39:31.728Z,19.67
2017-09-15T02:41:58.253Z,19.52
2017-09-15T02:44:24.605Z,19.33
2017-09-15T02:46:51.019Z,19.22
2017-09-15T02:49:17.366Z,19.07
2017-09-15T02:51:43.805Z,19.08
2017-09-15T02:54:10.123Z,18.94
2017-09-15T02:56:36.468Z,18.59
2017-09-15T02:59:02.792Z,18.48
2017-09-15T03:01:29.025Z,18.39
2017-09-15T03:03:55.368Z,18.34
2017-09-15T03:06:22.006Z,18.39
2017-09-15T03:08:48.221Z,18.07
2017-09-15T03:11:14.548Z,18.05
2017-09-15T03:13:41.402Z,17.87
2017-09-15T03:16:07.951Z,17.79
2017-09-15T03:18:34.272Z,17.73
2017-09-15T03:21:00.598Z,17.68
2017-09-15T03:23:26.933Z,17.52
2017-09-15T03:25:53.154Z,17.49
2017-09-15T03:28:19.589Z,17.50
2017-09-15T03:30:45.838Z,17.56
2017-09-15T03:33:12.170Z,17.53
2017-09-15T03:35:38.499Z,17.53
2017-09-15T03:38:04.727Z,17.62
2017-09-15T03:40:31.056Z,17.74
2017-09-15T03:42:57.379Z,17.83
2017-09-15T03:45:23.622Z,17.91
2017-09-15T03:47:50.060Z,17.93
2017-09-15T03:50:16.471Z,17.92
2017-09-15T03:52:42.908Z,17.91
2017-09-15T03:55:09.167Z,17.91
2017-09-15T03:57:35.485Z,17.88
2017-09-15T04:00:01.910Z,17.90
2017-09-15T04:02:28.460Z,17.88
2017-09-15T04:04:54.923Z,17.85
2017-09-15T04:07:21.323Z,17.83
2017-09-15T04:09:47.652Z,17.84
2017-09-15T04:12:14.406Z,17.82
2017-09-15T04:14:41.230Z,17.91
2017-09-15T04:17:07.586Z,17.96
2017-09-15T04:19:34.138Z,18.02
2017-09-15T04:22:00.483Z,18.07
2017-09-15T04:24:26.667Z,17.93
2017-09-15T04:26:52.909Z,18.01
2017-09-15T04:29:19.229Z,18.09
2017-09-15T04:31:45.558Z,18.20
2017-09-15T04:34:11.785Z,18.31
2017-09-15T04:36:38.070Z,18.37
2017-09-15T04:39:04.442Z,18.98
2017-09-15T04:41:30.686Z,19.47
2017-09-15T04:43:57.226Z,20.03
2017-09-15T04:46:23.451Z,20.63
2017-09-15T04:48:50.107Z,21.34
2017-09-15T04:51:16.414Z,21.53
2017-09-15T04:53:42.970Z,21.85
2017-09-15T04:56:09.249Z,22.50
2017-09-15T04:58:35.935Z,23.05
2017-09-15T05:01:02.441Z,23.39
2017-09-15T05:03:28.849Z,23.39
2017-09-15T05:05:55.030Z,23.47
2017-09-15T05:08:21.385Z,23.75
2017-09-15T05:10:47.791Z,24.35
2017-09-15T05:13:14.046Z,24.83
2017-09-15T05:15:40.468Z,25.59
2017-09-15T05:18:06.805Z,26.07
2017-09-15T05:20:33.228Z,25.30
2017-09-15T05:22:59.749Z,24.65
2017-09-15T05:25:26.112Z,25.06
2017-09-15T05:27:52.857Z,24.36
2017-09-15T05:30:19.087Z,24.01
2017-09-15T05:32:45.903Z,24.57
2017-09-15T05:35:12.145Z,24.52
2017-09-15T05:37:38.487Z,25.92
2017-09-15T05:40:05.132Z,27.10
2017-09-15T05:42:31.671Z,26.48
2017-09-15T05:44:57.984Z,27.46
2017-09-15T05:47:24.207Z,27.20
2017-09-15T05:49:50.541Z,27.41
2017-09-15T05:52:16.788Z,26.79
2017-09-15T05:54:43.119Z,26.81
2017-09-15T05:57:09.754Z,26.86
2017-09-15T05:59:35.980Z,27.86
2017-09-15T06:02:02.206Z,28.21
2017-09-15T06:04:28.482Z,29.31
2017-09-15T06:06:54.985Z,28.83
2017-09-15T06:09:21.296Z,28.56
2017-09-15T06:11:47.749Z,27.28
2017-09-15T06:14:13.959Z,27.19
2017-09-15T06:16:40.520Z,27.10
2017-09-15T06:19:06.731Z,27.58
2017-09-15T06:21:33.184Z,27.83
2017-09-15T06:23:59.801Z,27.60
2017-09-15T06:26:26.257Z,27.99
2017-09-15T06:28:52.580Z,27.81
2017-09-15T06:31:19.311Z,27.33
2017-09-15T06:33:45.970Z,28.01
2017-09-15T06:36:12.718Z,28.69
2017-09-15T06:38:38.996Z,29.25
2017-09-15T06:41:05.226Z,29.51
2017-09-15T06:43:31.564Z,29.79
2017-09-15T06:45:57.793Z,29.37
2017-09-15T06:48:24.880Z,29.59
2017-09-15T06:50:51.192Z,29.77
2017-09-15T06:53:17.337Z,29.37
2017-09-15T06:55:43.544Z,29.85
2017-09-15T06:58:09.855Z,30.05
2017-09-15T07:00:36.153Z,30.57
2017-09-15T07:03:02.768Z,30.07
2017-09-15T07:05:28.946Z,30.81
2017-09-15T07:07:55.255Z,30.67
2017-09-15T07:10:21.574Z,30.81
2017-09-15T07:12:47.817Z,31.36
2017-09-15T07:15:14.057Z,31.21
2017-09-15T07:17:40.302Z,31.56
2017-09-15T07:20:06.499Z,31.14
2017-09-15T07:22:32.768Z,30.72
2017-09-15T07:24:58.954Z,31.00
2017-09-15T07:27:25.245Z,31.25
2017-09-15T07:29:51.487Z,31.90
2017-09-15T07:32:17.699Z,32.36
2017-09-15T07:34:44.003Z,33.06
2017-09-15T07:37:10.203Z,33.86
2017-09-15T07:39:36.661Z,34.26
2017-09-15T07:42:02.961Z,34.33
2017-09-15T07:44:29.388Z,35.12
2017-09-15T07:46:55.694Z,34.86
2017-09-15T07:49:22.267Z,35.36
2017-09-15T07:51:48.589Z,35.02
2017-09-15T07:54:14.790Z,35.16
2017-09-15T07:56:41.407Z,35.91
2017-09-15T07:59:07.717Z,35.75
2017-09-15T08:01:34.013Z,36.27
2017-09-15T08:04:00.595Z,35.96
2017-09-15T08:06:27.715Z,36.04
2017-09-15T08:08:54.026Z,36.06
2017-09-15T08:11:20.208Z,35.45
2017-09-15T08:13:46.418Z,35.96
2017-09-15T08:16:13.227Z,36.15
2017-09-15T08:18:39.515Z,35.44
2017-09-15T08:21:05.736Z,35.47
2017-09-15T08:23:32.040Z,34.30
2017-09-15T08:25:58.198Z,35.41
2017-09-15T08:28:24.816Z,35.15
2017-09-15T08:30:51.048Z,36.19
2017-09-15T08:33:17.264Z,36.91
2017-09-15T08:35:43.596Z,37.14
2017-09-15T08:38:09.927Z,36.48
2017-09-15T08:40:36.487Z,37.20
2017-09-15T08:43:02.750Z,36.98
2017-09-15T08:45:29.061Z,36.98
2017-09-15T08:47:55.404Z,37.42
2017-09-15T08:50:21.623Z,37.78
2017-09-15T08:52:47.840Z,38.03
2017-09-15T08:55:14.214Z,37.63
2017-09-15T08:57:40.506Z,37.78
2017-09-15T09:00:06.717Z,37.79
2017-09-15T09:02:32.947Z,37.58
2017-09-15T09:04:59.152Z,37.31
2017-09-15T09:07:25.506Z,37.49
2017-09-15T09:09:51.726Z,36.22
2017-09-15T09:12:18.275Z,36.05
2017-09-15T09:14:44.601Z,35.45
2017-09-15T09:17:10.817Z,35.30
2017-09-15T09:19:37.359Z,35.51
2017-09-15T09:22:03.673Z,35.80
2017-09-15T09:24:29.932Z,35.86
2017-09-15T09:26:56.364Z,35.64
2017-09-15T09:29:22.585Z,36.07
2017-09-15T09:31:48.945Z,36.12
2017-09-15T09:34:15.676Z,36.17
2017-09-15T09:36:42.103Z,34.95
2017-09-15T09:39:08.432Z,35.09
2017-09-15T09:41:34.746Z,35.49
2017-09-15T09:44:01.315Z,36.30
2017-09-15T09:46:27.638Z,36.03
2017-09-15T09:48:53.945Z,36.15
2017-09-15T09:51:20.503Z,36.71
2017-09-15T09:53:46.841Z,36.01
2017-09-15T09:56:13.164Z,35.58
2017-09-15T09:58:39.872Z,36.09
2017-09-15T10:01:06.172Z,35.98
2017-09-15T10:03:32.535Z,35.36
2017-09-15T10:05:58.902Z,35.47
2017-09-15T10:08:25.571Z,35.64
2017-09-15T10:10:51.778Z,35.53
2017-09-15T10:13:18.233Z,35.70
2017-09-15T10:15:44.526Z,35.47
2017-09-15T10:18:10.770Z,35.50
2017-09-15T10:20:37.002Z,35.83
2017-09-15T10:23:04.175Z,36.03
2017-09-15T10:25:30.368Z,35.79
2017-09-15T10:27:57.422Z,35.88
2017-09-15T10:30:23.879Z,35.82
2017-09-15T10:32:50.186Z,35.47
2017-09-15T10:35:16.836Z,35.25
2017-09-15T10:37:43.277Z,35.17
2017-09-15T10:40:09.592Z,35.09
2017-09-15T10:42:35.812Z,35.49
2017-09-15T10:45:02.151Z,35.49
2017-09-15T10:47:28.388Z,35.64
2017-09-15T10:49:54.757Z,35.86
2017-09-15T10:52:21.037Z,36.03
2017-09-15T10:54:47.290Z,36.27
2017-09-15T10:57:13.621Z,36.36
2017-09-15T10:59:39.962Z,35.59
2017-09-15T11:02:06.781Z,35.81
2017-09-15T11:04:33.427Z,36.05
2017-09-15T11:06:59.766Z,35.77
2017-09-15T11:09:25.973Z,34.97
2017-09-15T11:11:52.419Z,34.81
2017-09-15T11:14:18.777Z,34.07
2017-09-15T11:16:45.185Z,34.11
2017-09-15T11:19:11.432Z,34.50
2017-09-15T11:21:38.055Z,34.84
2017-09-15T11:24:04.302Z,35.34
2017-09-15T11:26:31.246Z,35.35
2017-09-15T11:28:57.562Z,35.86
2017-09-15T11:31:23.827Z,36.05
2017-09-15T11:33:50.035Z,36.13
2017-09-15T11:36:16.362Z,36.57
2017-09-15T11:38:42.611Z,36.56
2017-09-15T11:41:09.150Z,36.93
2017-09-15T11:43:35.462Z,37.29
2017-09-15T11:46:02.100Z,36.98
2017-09-15T11:48:28.859Z,37.30
2017-09-15T11:50:55.187Z,37.27
2017-09-15T11:53:21.536Z,37.80
2017-09-15T11:55:48.057Z,37.48
2017-09-15T11:58:14.405Z,37.77
2017-09-15T12:00:41.335Z,37.67
2017-09-15T12:03:07.640Z,37.40
2017-09-15T12:05:34.095Z,37.83
2017-09-15T12:08:00.434Z,37.71
2017-09-15T12:10:26.801Z,37.70
2017-09-15T12:12:53.195Z,37.56
2017-09-15T12:15:19.629Z,37.48
2017-09-15T12:17:46.072Z,37.90
2017-09-15T12:20:12.495Z,37.89
2017-09-15T12:22:38.941Z,38.06
2017-09-15T12:25:05.364Z,38.61
2017-09-15T12:27:31.587Z,38.17
2017-09-15T12:29:57.920Z,38.21
2017-09-15T12:32:24.272Z,37.41
2017-09-15T12:34:50.482Z,37.87
2017-09-15T12:37:16.735Z,38.08
2017-09-15T12:39:43.247Z,37.77
2017-09-15T12:42:09.600Z,37.21
2017-09-15T12:44:35.773Z,37.80
2017-09-15T12:47:02.366Z,38.29
2017-09-15T12:49:28.689Z,38.14
2017-09-15T12:51:54.892Z,38.78
2017-09-15T12:54:21.590Z,38.42
2017-09-15T12:56:47.876Z,39.25
2017-09-15T12:59:14.240Z,38.38
2017-09-15T13:01:41.179Z,38.40
2017-09-15T13:04:07.494Z,37.83
2017-09-15T13:06:33.726Z,37.86
2017-09-15T13:09:00.089Z,37.58
2017-09-15T13:11:26.440Z,38.71
2017-09-15T13:13:52.857Z,38.71
2017-09-15T13:16:19.265Z,38.68
2017-09-15T13:18:45.609Z,38.84
2017-09-15T13:21:12.037Z,38.41
2017-09-15T13:23:38.355Z,38.85
2017-09-15T13:26:05.715Z,38.07
2017-09-15T13:28:32.041Z,38.01
2017-09-15T13:30:58.389Z,38.02
2017-09-15T13:33:24.934Z,38.17
2017-09-15T13:35:51.097Z,38.82
2017-09-15T13:38:17.364Z,39.41
2017-09-15T13:40:43.712Z,39.08
2017-09-15T13:43:10.042Z,38.76
2017-09-15T13:45:36.357Z,38.87
2017-09-15T13:48:02.709Z,39.56
2017-09-15T13:50:29.043Z,39.52
2017-09-15T13:52:55.271Z,39.94
2017-09-15T13:55:21.606Z,39.32
2017-09-15T13:57:48.247Z,38.83
2017-09-15T14:00:14.568Z,39.46
2017-09-15T14:02:41.225Z,39.26
2017-09-15T14:05:07.549Z,39.33
2017-09-15T14:07:33.760Z,38.96
2017-09-15T14:10:00.220Z,39.56
2017-09-15T14:12:27.152Z,38.91
2017-09-15T14:14:53.794Z,38.72
2017-09-15T14:17:20.534Z,39.05
2017-09-15T14:19:47.055Z,38.67
2017-09-15T14:22:14.087Z,38.40
2017-09-15T14:24:40.440Z,38.03
2017-09-15T14:27:07.760Z,38.64
2017-09-15T14:29:34.562Z,39.14
2017-09-15T14:32:00.870Z,39.46
2017-09-15T14:34:27.122Z,39.58
2017-09-15T14:36:53.574Z,39.50
2017-09-15T14:39:19.863Z,39.29
2017-09-15T14:41:46.417Z,38.73
2017-09-15T14:44:15.635Z,38.59
2017-09-15T14:46:43.489Z,39.04
2017-09-15T14:49:10.125Z,38.33
2017-09-15T14:51:36.862Z,37.44
2017-09-15T14:54:03.209Z,37.83
2017-09-15T14:56:29.848Z,37.21
2017-09-15T14:58:56.187Z,37.76
2017-09-15T15:01:22.504Z,37.91
2017-09-15T15:03:48.840Z,37.78
2017-09-15T15:06:15.154Z,37.31
2017-09-15T15:08:41.387Z,37.08
2017-09-15T15:11:07.729Z,37.40
2017-09-15T15:13:34.159Z,37.36
2017-09-15T15:16:00.414Z,37.87
2017-09-15T15:18:26.830Z,37.38
2017-09-15T15:20:53.787Z,37.07
2017-09-15T15:23:20.421Z,36.37
2017-09-15T15:25:46.737Z,35.96
2017-09-15T15:28:13.091Z,35.86
2017-09-15T15:30:39.511Z,35.46
2017-09-15T15:33:05.837Z,35.64
2017-09-15T15:35:32.289Z,35.26
2017-09-15T15:37:58.599Z,34.82
2017-09-15T15:40:24.931Z,34.05
2017-09-15T15:42:51.319Z,33.53
2017-09-15T15:45:18.224Z,32.90
2017-09-15T15:47:44.536Z,32.27
2017-09-15T15:50:10.892Z,31.43
2017-09-15T15:52:37.206Z,30.99
2017-09-15T15:55:03.509Z,30.53
2017-09-15T15:57:29.826Z,30.33
2017-09-15T15:59:56.823Z,30.04
2017-09-15T16:02:23.122Z,29.76
2017-09-15T16:04:49.708Z,29.68
2017-09-15T16:07:16.057Z,29.55
2017-09-15T16:09:42.470Z,29.28
2017-09-15T16:12:09.000Z,29.12
2017-09-15T16:14:35.299Z,29.07
2017-09-15T16:17:01.469Z,28.94
2017-09-15T16:19:27.683Z,28.80
2017-09-15T16:21:53.995Z,28.60
2017-09-15T16:24:20.250Z,28.58
2017-09-15T16:26:46.420Z,28.56
2017-09-15T16:29:12.732Z,28.47
2017-09-15T16:31:38.954Z,28.31
2017-09-15T16:34:05.488Z,28.22
2017-09-15T16:36:31.916Z,28.10
2017-09-15T16:38:58.360Z,27.98
2017-09-15T16:41:24.560Z,27.97
2017-09-15T16:43:51.007Z,27.95
2017-09-15T16:46:17.215Z,27.87
2017-09-15T16:48:43.533Z,27.80
2017-09-15T16:51:09.990Z,27.76
2017-09-15T16:53:36.605Z,27.67
2017-09-15T16:56:02.983Z,27.56
2017-09-15T16:58:29.484Z,27.58
2017-09-15T17:00:55.747Z,27.52
2017-09-15T17:03:22.380Z,27.46
2017-09-15T17:05:48.611Z,27.33
2017-09-15T17:08:15.552Z,27.34
2017-09-15T17:10:42.098Z,27.30
2017-09-15T17:13:08.437Z,27.19
2017-09-15T17:15:35.174Z,27.10
2017-09-15T17:18:01.484Z,26.96
2017-09-15T17:20:27.801Z,26.66
2017-09-15T17:22:54.282Z,26.59
2017-09-15T17:25:20.510Z,26.48
2017-09-15T17:27:47.139Z,26.39
2017-09-15T17:30:13.351Z,26.26
2017-09-15T17:32:39.513Z,26.21
2017-09-15T17:35:06.043Z,26.16
2017-09-15T17:37:32.326Z,26.11
2017-09-15T17:39:58.889Z,26.04
2017-09-15T17:42:25.137Z,26.02
2017-09-15T17:44:51.473Z,26.11
2017-09-15T17:47:17.791Z,26.23
2017-09-15T17:49:44.127Z,26.35
2017-09-15T17:52:10.734Z,26.32
2017-09-15T17:54:37.004Z,26.07
2017-09-15T17:57:03.331Z,25.96
2017-09-15T17:59:29.770Z,25.91
2017-09-15T18:01:56.311Z,25.77
2017-09-15T18:04:22.837Z,25.54
2017-09-15T18:06:49.370Z,25.18
2017-09-15T18:09:15.703Z,25.05
2017-09-15T18:11:41.928Z,24.90
2017-09-15T18:14:08.467Z,24.77
2017-09-15T18:16:34.714Z,24.71
2017-09-15T18:19:01.139Z,24.63
2017-09-15T18:21:27.674Z,24.56
2017-09-15T18:23:54.731Z,24.47
2017-09-15T18:26:21.149Z,24.39
2017-09-15T18:28:47.491Z,24.28
2017-09-15T18:31:13.975Z,24.27
2017-09-15T18:33:40.347Z,24.28
2017-09-15T18:36:07.003Z,24.35
2017-09-15T18:38:33.532Z,24.35
2017-09-15T18:41:00.255Z,24.38
2017-09-15T18:43:26.468Z,24.30
2017-09-15T18:45:52.936Z,24.11
2017-09-15T18:48:19.537Z,23.90
2017-09-15T18:50:45.893Z,23.75
2017-09-15T18:53:12.139Z,23.68
2017-09-15T18:55:38.699Z,23.51
2017-09-15T18:58:05.023Z,23.38
2017-09-15T19:00:31.346Z,23.31
2017-09-15T19:02:57.695Z,23.24
2017-09-15T19:05:23.996Z,23.17
2017-09-15T19:07:50.208Z,23.06
2017-09-15T19:10:17.387Z,23.05
2017-09-15T19:12:44.419Z,23.10
2017-09-15T19:15:10.868Z,23.13
2017-09-15T19:17:37.298Z,23.00
2017-09-15T19:20:03.749Z,22.96
2017-09-15T19:22:30.271Z,22.92
2017-09-15T19:24:56.705Z,22.81
2017-09-15T19:27:23.238Z,22.66
2017-09-15T19:29:49.467Z,22.56
2017-09-15T19:32:16.118Z,22.40
2017-09-15T19:34:42.325Z,22.31
2017-09-15T19:37:08.876Z,22.20
2017-09-15T19:39:35.200Z,22.16
2017-09-15T19:42:02.050Z,22.11
2017-09-15T19:44:28.988Z,21.79
2017-09-15T19:46:55.330Z,21.66
2017-09-15T19:49:21.663Z,21.60
2017-09-15T19:51:48.204Z,21.51
2017-09-15T19:54:14.528Z,21.50
2017-09-15T19:56:40.923Z,21.47
2017-09-15T19:59:07.201Z,21.54
2017-09-15T20:01:33.388Z,21.62
2017-09-15T20:03:59.646Z,21.68
2017-09-15T20:06:25.878Z,21.72
2017-09-15T20:08:52.237Z,21.68
2017-09-15T20:11:18.550Z,21.55
2017-09-15T20:13:45.207Z,21.36
2017-09-15T20:16:11.647Z,21.23
2017-09-15T20:18:37.963Z,21.16
2017-09-15T20:21:04.288Z,21.14
2017-09-15T20:23:30.513Z,21.11
2017-09-15T20:25:56.779Z,21.03
2017-09-15T20:28:22.957Z,20.99
2017-09-15T20:30:49.408Z,20.94
2017-09-15T20:33:15.740Z,20.87
2017-09-15T20:35:42.478Z,20.85
2017-09-15T20:38:08.924Z,20.81
2017-09-15T20:40:35.482Z,20.68
2017-09-15T20:43:01.916Z,20.51
2017-09-15T20:45:28.238Z,20.49
2017-09-15T20:47:55.178Z,20.52
2017-09-15T20:50:21.401Z,20.48
2017-09-15T20:52:47.640Z,20.45
2017-09-15T20:55:14.258Z,20.53
2017-09-15T20:57:40.607Z,20.60
2017-09-15T21:00:06.937Z,20.56
2017-09-15T21:02:33.252Z,20.61
2017-09-15T21:04:59.685Z,20.57
2017-09-15T21:07:26.023Z,20.49
2017-09-15T21:09:52.547Z,20.44
2017-09-15T21:12:18.907Z,20.22
2017-09-15T21:14:45.140Z,20.05
2017-09-15T21:17:11.455Z,19.81
2017-09-15T21:19:37.890Z,19.76
2017-09-15T21:22:04.428Z,19.76
2017-09-15T21:24:30.762Z,19.71
2017-09-15T21:26:57.098Z,19.67
2017-09-15T21:29:23.834Z,19.61
2017-09-15T21:31:50.074Z,19.50
2017-09-15T21:34:16.300Z,19.50
2017-09-15T21:36:42.925Z,19.49
2017-09-15T21:39:09.364Z,19.47
2017-09-15T21:41:35.710Z,19.44
2017-09-15T21:44:01.952Z,19.39
2017-09-15T21:46:28.681Z,19.29
2017-09-15T21:48:55.023Z,19.25
2017-09-15T21:51:21.457Z,19.22
2017-09-15T21:53:47.762Z,19.24
2017-09-15T21:56:14.120Z,19.22
2017-09-15T21:58:40.644Z,19.13
2017-09-15T22:01:06.968Z,19.06
2017-09-15T22:03:33.310Z,19.04
2017-09-15T22:05:59.730Z,18.97
2017-09-15T22:08:26.069Z,18.97
2017-09-15T22:10:52.857Z,19.08
2017-09-15T22:13:19.139Z,19.10
2017-09-15T22:15:45.362Z,19.08
2017-09-15T22:18:12.027Z,18.95
2017-09-15T22:20:38.386Z,18.84
2017-09-15T22:23:04.567Z,18.65
2017-09-15T22:25:30.806Z,18.56
2017-09-15T22:27:57.345Z,18.54
2017-09-15T22:30:23.667Z,18.45
2017-09-15T22:32:49.993Z,18.41
2017-09-15T22:35:16.364Z,18.29
2017-09-15T22:37:42.568Z,18.22
2017-09-15T22:40:08.905Z,18.11
2017-09-15T22:42:35.127Z,18.17
2017-09-15T22:45:01.468Z,18.14
2017-09-15T22:47:28.205Z,18.09
2017-09-15T22:49:54.544Z,18.01
2017-09-15T22:52:20.771Z,18.04
2017-09-15T22:54:46.997Z,17.71
2017-09-15T22:57:13.645Z,17.75
2017-09-15T22:59:39.964Z,17.82
2017-09-15T23:02:06.505Z,17.86
2017-09-15T23:04:32.741Z,17.90
2017-09-15T23:06:59.064Z,17.95
2017-09-15T23:09:25.401Z,18.03
2017-09-15T23:11:51.733Z,17.86
2017-09-15T23:14:18.089Z,17.90
2017-09-15T23:16:44.407Z,17.92
2017-09-15T23:19:10.721Z,17.81
2017-09-15T23:21:37.051Z,17.77
2017-09-15T23:24:03.404Z,17.75
2017-09-15T23:26:29.814Z,17.69
2017-09-15T23:28:56.050Z,17.57
2017-09-15T23:31:22.386Z,17.58
2017-09-15T23:33:48.601Z,17.63
2017-09-15T23:36:14.834Z,17.65
2017-09-15T23:38:41.177Z,17.64
2017-09-15T23:41:07.517Z,17.64
2017-09-15T23:43:33.826Z,17.74
2017-09-15T23:46:00.594Z,17.79
2017-09-15T23:48:26.919Z,17.78
2017-09-15T23:50:53.880Z,17.82
2017-09-15T23:53:20.511Z,17.80
2017-09-15T23:55:46.719Z,17.79
2017-09-15T23:58:13.080Z,17.56
